Decoded Metar for YESP ( in ) (IATA:) | Meteo·Mobile Aviation Weather
aviador You're here:

YESP Decoded Metar

in
Report Time2018-08-18 08:00:00
UTC Time2018-08-18 08:17:07
Flight Rules vfr VFR
Wind110° at 05 kt
W.Decomp.*RWY 11: 5.0 kt HW -0 kt LCW
RWY 03: 0.9 kt HW 4.9 kt RCW
W.Rank110° ranks 18
Current wind is below 110° avg. (8.5)
Visibility9999 m
Phenomena:N/A
Clouds:N/A
Expected CloudBase > 3,600 ft AGL from Temp-Dew spread
CeilingNone
Temp13°C
Dew Point04°C (55% RH)
AAT9.9°C
QNH1028 hPa
Raw Report
METAR YESP 180800Z AUTO 11005KT 9999 // NCD 13/04 Q1028=

Extra information for YESP:More info

Social comments